Gile, WI (54525)

1:05 AM CDT on September 03, 2015 (GMT -0500)
SE Gile Flowage - Winterfell | | Change Station
CLOSE
Current Station
Personal Weather Station
Location: Hurley, WI
Elevation: 1532 ft
Nearby Weather Stations

Elev 1532 ft 46.39 °N, 90.19 °W | Updated 9 minutes ago

Fog
Fog
56.8 °F
Feels Like 56.8 °F
N
0.0
Wind Variable Wind from SSW

Today
High -- | Low -- °F
--% Chance of Precip.
Yesterday
High -- | Low -- °F
Precip. -- in
6:23 AM 7:36 PM
Waning Gibbous, 73% visible
Pressure 29.95 in
Visibility 0.2 miles
Clouds Overcast 100 ft
Dew Point 56 °F
Humidity 97%
Rainfall 0.00 in
Snow Depth Not available.
UV 0 out of 12
Pollen 9.00 out of 12
Air Quality Not available.
Flu Activity Not available.
METAR KIWD 030555Z AUTO 00000KT 1/4SM OVC001 15/15 A2995 RMK AO1 10200 20140 402200140 54000
Pressure 29.95 in
Visibility 0.2 miles
Clouds Overcast 100 ft
Dew Point 56 °F
Humidity 97%
Rainfall 0.00 in
Snow Depth Not available.
UV 0 out of 12
Pollen 9.00 out of 12
Air Quality Not available.
Flu Activity Not available.
METAR KIWD 030555Z AUTO 00000KT 1/4SM OVC001 15/15 A2995 RMK AO1 10200 20140 402200140 54000

10-Day Weather Forecast

×

Almanac

Astronomy

Sep. 03, 2015 Rise Set
Actual Time
Civil Twilight
Nautical Twilight
Astronomical Twilight
Moon
Length of Visible Light
Length of Day
Tomorrow will be .
, % of the Moon is Illuminated

Today's Extremes

State Highs State Lows

Community

WunderPhotos

Upload Photos

1,851,914 photos uploaded!

WunderBlogs® & News

Nearby

Air Quality

  Air Quality AQ Index Pollutant
Not available.

Snow Depth

Station Depth Elevation

Earthquake Activity

City Distance Mag. Time & Date
Minimum magnitude displayed is 2.5.

Coastal Water Temperatures

Place Temperature

Stations

Nearby Weather Stations

Station Location Temp. Windchill Dew Point Humidity Wind Precip. Elev Updated Type